createdAt,value
2022-11-01T00:46:23.591Z,19.50
2022-11-01T00:49:18.109Z,19.88
2022-11-01T00:52:06.064Z,19.20
2022-11-01T00:54:51.260Z,19.13
2022-11-01T00:57:36.521Z,15.57
2022-11-01T01:47:01.848Z,19.00
2022-11-01T01:49:48.666Z,15.70
2022-11-01T01:52:36.298Z,17.20
2022-11-01T01:55:26.575Z,13.88
2022-11-01T01:58:13.283Z,15.20
2022-11-01T02:45:37.759Z,15.25
2022-11-01T02:48:23.891Z,14.13
2022-11-01T02:51:09.893Z,16.88
2022-11-01T02:53:55.008Z,14.43
2022-11-01T02:56:40.611Z,17.13
2022-11-01T02:59:27.722Z,12.38
2022-11-01T03:46:33.032Z,16.90
2022-11-01T03:49:18.634Z,14.40
2022-11-01T03:52:04.199Z,14.50
2022-11-01T03:54:49.514Z,15.37
2022-11-01T03:57:34.893Z,21.65
2022-11-01T04:47:37.344Z,14.57
2022-11-01T04:50:22.363Z,12.68
2022-11-01T04:53:07.924Z,15.65
2022-11-01T04:55:53.036Z,13.27
2022-11-01T04:58:43.067Z,15.70
2022-11-01T05:32:01.227Z,14.07
2022-11-01T05:34:48.857Z,15.77
2022-11-01T05:37:35.825Z,14.00
2022-11-01T05:40:21.178Z,12.93
2022-11-01T05:43:06.441Z,11.88
2022-11-01T05:45:51.681Z,15.23
2022-11-01T05:48:36.574Z,17.13
2022-11-01T05:51:22.854Z,14.02
2022-11-01T05:54:08.166Z,16.23
2022-11-01T05:56:53.057Z,17.52
2022-11-01T05:59:37.891Z,13.93
2022-11-01T06:02:23.111Z,13.05
2022-11-01T06:05:08.736Z,12.13
2022-11-01T06:07:53.807Z,13.47
2022-11-01T06:10:38.667Z,13.45
2022-11-01T06:13:23.552Z,12.93
2022-11-01T06:16:08.597Z,14.57
2022-11-01T06:18:53.829Z,14.45
2022-11-01T06:21:38.635Z,14.90
2022-11-01T06:24:23.422Z,13.35
2022-11-01T06:27:12.357Z,18.02
2022-11-01T06:29:58.179Z,14.68
2022-11-01T06:32:43.206Z,12.25
2022-11-01T06:35:28.310Z,15.70
2022-11-01T06:38:13.382Z,14.60
2022-11-01T06:40:58.206Z,16.33
2022-11-01T06:43:42.942Z,13.45
2022-11-01T06:46:27.749Z,14.07
2022-11-01T06:49:16.412Z,15.87
2022-11-01T06:52:05.230Z,13.93
2022-11-01T06:54:50.447Z,16.25
2022-11-01T06:57:35.219Z,11.85
2022-11-01T07:00:20.112Z,14.52
2022-11-01T07:03:05.996Z,14.47
2022-11-01T07:05:51.918Z,15.80
2022-11-01T07:08:36.944Z,14.10
2022-11-01T07:11:21.797Z,16.20
2022-11-01T07:14:06.786Z,13.60
2022-11-01T07:16:51.586Z,14.57
2022-11-01T07:19:36.406Z,19.83
2022-11-01T07:22:21.161Z,14.07
2022-11-01T07:25:06.225Z,14.68
2022-11-01T07:27:51.259Z,14.05
2022-11-01T07:30:36.339Z,12.47
2022-11-01T07:33:21.504Z,12.85
2022-11-01T07:36:06.522Z,17.02
2022-11-01T07:38:51.663Z,16.75
2022-11-01T07:41:36.352Z,24.83
2022-11-01T07:44:21.391Z,29.43
2022-11-01T07:47:06.277Z,24.05
2022-11-01T07:49:51.508Z,24.02
2022-11-01T07:52:36.592Z,24.38
2022-11-01T07:55:22.032Z,23.45
2022-11-01T07:58:07.700Z,24.37
2022-11-01T08:00:52.767Z,22.58
2022-11-01T08:03:38.517Z,25.38
2022-11-01T08:06:23.613Z,22.95
2022-11-01T08:09:09.064Z,22.40
2022-11-01T08:11:54.008Z,24.60
2022-11-01T08:14:39.000Z,22.00
2022-11-01T08:17:24.427Z,23.08
2022-11-01T08:20:09.743Z,32.47
2022-11-01T08:22:54.872Z,50.53
2022-11-01T08:25:39.722Z,42.50
2022-11-01T08:28:24.617Z,56.03
2022-11-01T08:31:10.244Z,62.72
2022-11-01T08:33:54.944Z,64.05
2022-11-01T08:36:39.812Z,107.57
2022-11-01T08:39:25.768Z,72.97
2022-11-01T08:42:11.162Z,66.20
2022-11-01T08:44:56.572Z,69.78
2022-11-01T08:47:41.469Z,67.53
2022-11-01T08:50:27.280Z,55.90
2022-11-01T08:53:13.034Z,51.00
2022-11-01T08:55:58.522Z,50.28
2022-11-01T08:58:43.249Z,44.55
2022-11-01T09:01:28.277Z,43.60
2022-11-01T09:04:14.283Z,38.47
2022-11-01T09:06:59.396Z,42.10
2022-11-01T09:09:44.440Z,43.10
2022-11-01T09:12:29.519Z,39.10
2022-11-01T09:15:14.793Z,31.48
2022-11-01T09:18:04.138Z,27.10
2022-11-01T09:20:55.585Z,27.03
2022-11-01T09:23:40.473Z,26.02
2022-11-01T09:26:27.258Z,25.27
2022-11-01T09:29:12.279Z,23.23
2022-11-01T09:31:57.266Z,24.27
2022-11-01T09:34:42.102Z,19.97
2022-11-01T09:37:26.950Z,18.20
2022-11-01T09:40:14.279Z,23.10
2022-11-01T09:43:01.925Z,23.88
2022-11-01T09:45:48.579Z,20.30
2022-11-01T09:48:35.060Z,20.13
2022-11-01T09:51:24.404Z,17.98
2022-11-01T09:54:10.073Z,22.23
2022-11-01T09:57:14.246Z,18.75
2022-11-01T10:00:13.306Z,20.52
2022-11-01T10:03:17.157Z,24.13
2022-11-01T10:06:05.487Z,19.02
2022-11-01T10:08:56.526Z,20.38
2022-11-01T10:11:47.705Z,18.17
2022-11-01T10:15:11.612Z,24.38
2022-11-01T10:18:00.401Z,18.97
2022-11-01T10:20:45.889Z,18.10
2022-11-01T10:23:44.044Z,19.52
2022-11-01T10:26:30.293Z,24.88
2022-11-01T10:29:33.787Z,21.40
2022-11-01T10:32:37.388Z,19.47
2022-11-01T10:35:24.128Z,19.15
2022-11-01T10:38:41.515Z,26.60
2022-11-01T10:41:27.218Z,21.77
2022-11-01T10:44:16.271Z,19.45
2022-11-01T10:47:04.851Z,18.57
2022-11-01T10:50:10.073Z,21.30
2022-11-01T10:53:07.383Z,32.17
2022-11-01T10:55:56.891Z,24.05
2022-11-01T10:58:42.143Z,20.45
2022-11-01T11:01:28.317Z,18.80
2022-11-01T11:04:15.717Z,16.63
2022-11-01T11:07:00.943Z,13.98
2022-11-01T11:09:50.306Z,16.55
2022-11-01T11:12:36.065Z,21.02
2022-11-01T11:15:35.646Z,19.67
2022-11-01T11:18:25.348Z,17.75
2022-11-01T11:21:11.972Z,22.23
2022-11-01T11:23:57.094Z,14.00
2022-11-01T11:30:01.616Z,19.00
2022-11-01T11:32:48.565Z,17.40
2022-11-01T11:35:33.656Z,16.58
2022-11-01T11:38:18.749Z,16.67
2022-11-01T11:41:03.651Z,19.70
2022-11-01T11:43:48.619Z,13.40
2022-11-01T11:46:33.824Z,18.60
2022-11-01T11:49:28.058Z,16.05
2022-11-01T11:52:39.859Z,16.15
2022-11-01T11:55:39.776Z,14.15
2022-11-01T11:58:28.350Z,17.73
2022-11-01T12:01:15.745Z,18.15
2022-11-01T12:04:15.581Z,13.80
2022-11-01T12:07:00.663Z,15.40
2022-11-01T12:09:47.890Z,14.50
2022-11-01T12:12:34.867Z,17.13
2022-11-01T12:15:38.414Z,13.43
2022-11-01T12:18:25.468Z,12.27
2022-11-01T12:21:15.449Z,10.80
2022-11-01T12:24:02.556Z,13.98
2022-11-01T12:26:49.344Z,14.80
2022-11-01T12:29:36.121Z,13.90
2022-11-01T12:32:25.957Z,13.27
2022-11-01T12:35:16.693Z,11.82
2022-11-01T12:38:08.392Z,18.63
2022-11-01T12:40:54.351Z,14.87
2022-11-01T12:43:48.477Z,12.38
2022-11-01T12:46:59.671Z,17.65
2022-11-01T12:49:44.561Z,14.02
2022-11-01T12:52:29.476Z,11.85
2022-11-01T12:55:33.727Z,14.93
2022-11-01T12:58:20.382Z,13.38
2022-11-01T13:01:16.243Z,14.88
2022-11-01T13:04:13.443Z,17.55
2022-11-01T13:07:19.358Z,19.08
2022-11-01T13:10:16.140Z,11.80
2022-11-01T13:13:12.968Z,16.02
2022-11-01T13:16:02.337Z,16.05
2022-11-01T13:18:50.590Z,15.93
2022-11-01T13:21:37.755Z,11.38
2022-11-01T13:24:22.694Z,12.53
2022-11-01T13:27:16.413Z,16.98
2022-11-01T13:30:06.113Z,12.65
2022-11-01T13:32:59.220Z,12.20
2022-11-01T13:35:49.725Z,13.20
2022-11-01T13:39:07.630Z,13.00
2022-11-01T13:42:21.257Z,13.52
2022-11-01T13:45:12.282Z,11.43
2022-11-01T13:48:09.573Z,11.13
2022-11-01T13:50:59.845Z,15.88
2022-11-01T13:53:57.753Z,13.17
2022-11-01T13:56:55.039Z,11.85
2022-11-01T13:59:44.341Z,11.18
2022-11-01T14:02:47.716Z,14.55
2022-11-01T14:05:37.415Z,11.80
2022-11-01T14:08:27.717Z,10.47
2022-11-01T14:11:14.374Z,13.63
2022-11-01T14:13:59.795Z,11.85
2022-11-01T14:16:44.773Z,11.00
2022-11-01T14:19:30.507Z,10.75
2022-11-01T14:22:22.010Z,13.13
2022-11-01T14:25:15.323Z,10.80
2022-11-01T14:28:35.131Z,9.55
2022-11-01T14:31:26.503Z,10.18
2022-11-01T14:34:35.284Z,11.57
2022-11-01T14:37:23.106Z,9.67
2022-11-01T14:40:11.085Z,7.28
2022-11-01T14:42:58.124Z,9.68
2022-11-01T14:45:49.038Z,9.82
2022-11-01T14:48:36.198Z,11.50
2022-11-01T14:51:28.137Z,9.70
2022-11-01T14:54:18.214Z,8.90
2022-11-01T14:57:03.839Z,8.45
2022-11-01T14:59:49.273Z,9.52
2022-11-01T15:02:35.140Z,8.88
2022-11-01T15:05:20.500Z,10.90
2022-11-01T15:08:20.042Z,8.20
2022-11-01T15:11:05.612Z,7.22
2022-11-01T15:13:53.586Z,9.13
2022-11-01T15:16:41.494Z,12.32
2022-11-01T15:19:31.707Z,16.17
2022-11-01T15:22:17.790Z,17.98
2022-11-01T15:25:04.613Z,15.38
2022-11-01T15:27:50.776Z,21.83
2022-11-01T15:30:36.157Z,32.05
2022-11-01T15:33:27.854Z,42.90
2022-11-01T15:36:20.696Z,33.22
2022-11-01T15:39:35.030Z,44.05
2022-11-01T15:42:33.870Z,48.05
2022-11-01T15:45:19.771Z,51.25
2022-11-01T15:48:09.772Z,51.37
2022-11-01T15:50:57.349Z,75.55
2022-11-01T15:53:43.114Z,65.22
2022-11-01T15:56:35.217Z,70.10
2022-11-01T15:59:46.300Z,67.63
2022-11-01T16:02:42.142Z,68.57
2022-11-01T16:05:29.878Z,70.68
2022-11-01T16:08:25.923Z,70.22
2022-11-01T16:11:15.584Z,73.72
2022-11-01T16:14:02.180Z,66.10
2022-11-01T16:16:56.844Z,71.67
2022-11-01T16:19:45.222Z,72.07
2022-11-01T16:22:42.932Z,72.28
2022-11-01T16:25:30.521Z,57.25
2022-11-01T16:28:15.600Z,50.28
2022-11-01T16:31:00.622Z,46.37
2022-11-01T16:33:46.861Z,47.55
2022-11-01T16:36:31.933Z,51.78
2022-11-01T16:39:43.261Z,60.60
2022-11-01T16:42:29.469Z,59.60
2022-11-01T16:45:14.612Z,60.63
2022-11-01T16:47:59.992Z,56.90
2022-11-01T16:50:45.178Z,58.47
2022-11-01T16:53:33.071Z,52.88
2022-11-01T16:59:33.510Z,53.60
2022-11-01T17:02:29.936Z,53.50
2022-11-01T17:05:15.848Z,52.35
2022-11-01T17:08:01.453Z,50.47
2022-11-01T17:10:46.909Z,48.53
2022-11-01T17:13:32.043Z,46.73
2022-11-01T17:16:21.949Z,53.08
2022-11-01T17:19:07.870Z,50.67
2022-11-01T17:21:53.859Z,51.50
2022-11-01T17:24:39.479Z,49.60
2022-11-01T17:27:25.038Z,43.10
2022-11-01T17:30:10.553Z,48.45
2022-11-01T17:32:55.590Z,44.53
2022-11-01T17:35:40.688Z,45.20
2022-11-01T17:38:30.150Z,43.88
2022-11-01T17:41:18.000Z,43.50
2022-11-01T17:44:03.136Z,40.17
2022-11-01T17:46:47.828Z,43.03
2022-11-01T17:49:32.736Z,43.78
2022-11-01T17:52:17.730Z,43.40
2022-11-01T17:55:02.672Z,37.90
2022-11-01T17:57:48.617Z,40.17
2022-11-01T18:00:34.200Z,40.80
2022-11-01T18:03:19.441Z,40.50
2022-11-01T18:06:04.411Z,38.40
2022-11-01T18:08:51.224Z,39.00
2022-11-01T18:11:46.548Z,37.28
2022-11-01T18:14:50.347Z,34.75
2022-11-01T18:17:39.650Z,36.58
2022-11-01T18:20:24.782Z,34.20
2022-11-01T18:23:11.771Z,31.63
2022-11-01T18:25:56.779Z,33.35
2022-11-01T18:28:41.810Z,37.50
2022-11-01T18:31:36.822Z,34.17
2022-11-01T18:34:57.388Z,33.25
2022-11-01T18:37:48.971Z,30.87
2022-11-01T18:40:52.760Z,33.13
2022-11-01T18:43:39.072Z,29.98
2022-11-01T18:46:27.367Z,33.58
2022-11-01T18:49:13.524Z,34.75
2022-11-01T18:51:58.499Z,28.57
2022-11-01T18:54:53.597Z,29.42
2022-11-01T18:57:42.703Z,33.63
2022-11-01T19:00:28.438Z,32.38
2022-11-01T19:03:15.423Z,30.20
2022-11-01T19:06:11.281Z,30.50
2022-11-01T19:08:58.284Z,32.13
2022-11-01T19:11:44.032Z,27.85
2022-11-01T19:14:33.017Z,30.92
2022-11-01T19:17:26.686Z,29.80
2022-11-01T19:20:21.648Z,31.47
2022-11-01T19:23:12.534Z,30.60
2022-11-01T19:25:59.116Z,30.92
2022-11-01T19:28:45.090Z,29.77
2022-11-01T19:31:36.734Z,28.13
2022-11-01T19:34:24.050Z,30.50
2022-11-01T19:37:31.600Z,28.50
2022-11-01T19:40:33.262Z,25.35
2022-11-01T19:43:23.175Z,26.85
2022-11-01T19:46:11.838Z,28.70
2022-11-01T19:48:57.776Z,27.17
2022-11-01T19:51:42.995Z,26.17
2022-11-01T19:54:30.910Z,24.95
2022-11-01T20:00:17.770Z,31.30
2022-11-01T20:03:04.475Z,26.70
2022-11-01T20:05:49.360Z,27.38
2022-11-01T20:08:34.828Z,21.70
2022-11-01T20:11:19.883Z,25.33
2022-11-01T20:14:06.254Z,27.27
2022-11-01T20:16:51.827Z,25.93
2022-11-01T20:19:36.840Z,25.08
2022-11-01T20:22:23.065Z,25.38
2022-11-01T20:25:08.671Z,22.67
2022-11-01T20:27:54.803Z,24.52
2022-11-01T20:30:40.147Z,26.10
2022-11-01T20:33:25.651Z,22.38
2022-11-01T20:36:11.603Z,22.83
2022-11-01T20:38:56.904Z,24.27
2022-11-01T20:41:42.396Z,22.25
2022-11-01T20:44:27.786Z,21.83
2022-11-01T20:47:13.474Z,22.17
2022-11-01T20:50:00.374Z,18.65
2022-11-01T20:52:46.149Z,20.13
2022-11-01T20:55:31.225Z,13.55
2022-11-01T20:58:16.452Z,15.47
2022-11-01T21:01:01.995Z,14.23
2022-11-01T21:03:47.288Z,16.98
2022-11-01T21:06:32.205Z,17.90
2022-11-01T21:09:46.664Z,16.25
2022-11-01T21:12:43.592Z,16.00
2022-11-01T21:15:36.443Z,16.45
2022-11-01T21:18:26.303Z,14.32
2022-11-01T21:21:14.931Z,17.33
2022-11-01T21:24:02.232Z,15.07
2022-11-01T21:26:50.895Z,19.27
2022-11-01T21:29:40.367Z,16.90
2022-11-01T21:32:29.819Z,16.92
2022-11-01T21:35:21.083Z,16.10
2022-11-01T21:38:25.287Z,13.73
2022-11-01T21:41:28.915Z,16.53
2022-11-01T21:44:23.556Z,17.00
2022-11-01T21:47:08.331Z,16.88
2022-11-01T21:49:53.317Z,16.00
2022-11-01T21:52:38.611Z,15.32
2022-11-01T21:55:24.302Z,18.07
2022-11-01T21:58:09.713Z,16.08
2022-11-01T22:00:54.957Z,15.07
2022-11-01T22:03:40.985Z,15.70
2022-11-01T22:06:26.396Z,13.82
2022-11-01T22:09:12.049Z,14.20
2022-11-01T22:11:57.403Z,15.95
2022-11-01T22:14:42.474Z,14.30
2022-11-01T22:17:27.291Z,14.38
2022-11-01T22:20:12.097Z,15.18
2022-11-01T22:22:56.979Z,15.50
2022-11-01T22:25:43.590Z,16.70
2022-11-01T22:28:28.620Z,16.42
2022-11-01T22:31:14.539Z,15.23
2022-11-01T22:34:01.211Z,16.42
2022-11-01T22:36:46.729Z,17.63
2022-11-01T22:39:31.970Z,12.77
2022-11-01T22:42:17.462Z,15.75
2022-11-01T22:45:02.771Z,12.40
2022-11-01T22:47:47.579Z,16.08
2022-11-01T22:50:32.435Z,22.87
2022-11-01T22:53:22.434Z,14.73
2022-11-01T22:56:10.174Z,12.60
2022-11-01T22:58:55.259Z,13.15
2022-11-01T23:01:40.202Z,12.57
2022-11-01T23:04:25.549Z,12.67
2022-11-01T23:07:22.651Z,13.15
2022-11-01T23:10:24.616Z,11.85
2022-11-01T23:13:31.565Z,14.00
2022-11-01T23:16:25.509Z,11.23
2022-11-01T23:19:12.261Z,13.63
2022-11-01T23:21:57.344Z,13.20
2022-11-01T23:24:42.377Z,12.68
2022-11-01T23:27:29.417Z,11.77
2022-11-01T23:30:14.500Z,13.95
2022-11-01T23:32:59.963Z,13.47
2022-11-01T23:35:53.326Z,15.63
2022-11-01T23:38:45.290Z,14.10
2022-11-01T23:41:33.108Z,10.32
2022-11-01T23:44:24.280Z,10.77
2022-11-01T23:47:09.274Z,11.30
2022-11-01T23:49:58.082Z,12.82
2022-11-01T23:52:43.179Z,13.13
2022-11-01T23:55:30.368Z,11.73
2022-11-01T23:58:34.337Z,11.00
